createdAt,value
2019-01-11T00:01:26.427Z,13.03
2019-01-11T00:03:58.266Z,11.17
2019-01-11T00:06:30.150Z,10.97
2019-01-11T00:09:02.012Z,12.63
2019-01-11T00:11:33.861Z,13.60
2019-01-11T00:14:05.921Z,12.57
2019-01-11T00:16:37.781Z,15.33
2019-01-11T00:19:09.646Z,14.50
2019-01-11T00:21:41.507Z,12.47
2019-01-11T00:24:13.365Z,12.93
2019-01-11T00:26:45.419Z,14.37
2019-01-11T00:29:17.272Z,12.73
2019-01-11T00:31:50.740Z,15.47
2019-01-11T00:34:22.642Z,13.87
2019-01-11T00:36:54.475Z,13.17
2019-01-11T00:39:27.274Z,13.07
2019-01-11T00:41:59.103Z,12.23
2019-01-11T00:44:30.964Z,9.90
2019-01-11T00:47:02.828Z,12.57
2019-01-11T00:49:34.706Z,9.93
2019-01-11T00:52:06.996Z,10.20
2019-01-11T00:54:38.892Z,10.77
2019-01-11T00:57:10.733Z,10.50
2019-01-11T00:59:42.566Z,8.60
2019-01-11T01:02:14.463Z,9.57
2019-01-11T01:04:46.399Z,12.93
2019-01-11T01:07:18.362Z,9.47
2019-01-11T01:09:50.224Z,8.10
2019-01-11T01:12:22.093Z,8.07
2019-01-11T01:14:53.959Z,7.40
2019-01-11T01:17:25.789Z,6.90
2019-01-11T01:19:59.257Z,7.13
2019-01-11T01:22:31.119Z,6.83
2019-01-11T01:25:02.930Z,8.47
2019-01-11T01:27:34.870Z,6.87
2019-01-11T01:30:11.550Z,6.03
2019-01-11T01:32:43.403Z,8.30
2019-01-11T01:35:15.297Z,7.10
2019-01-11T01:37:47.157Z,5.70
2019-01-11T01:40:19.122Z,7.50
2019-01-11T01:42:52.612Z,5.87
2019-01-11T01:45:24.484Z,11.97
2019-01-11T01:47:56.368Z,5.73
2019-01-11T01:50:28.169Z,5.60
2019-01-11T01:53:00.024Z,5.20
2019-01-11T01:55:31.858Z,5.70
2019-01-11T01:58:03.742Z,5.73
2019-01-11T02:00:35.685Z,6.13
2019-01-11T02:03:07.501Z,6.13
2019-01-11T02:05:39.352Z,7.50
2019-01-11T02:08:11.182Z,7.03
2019-01-11T02:10:43.051Z,6.60
2019-01-11T02:13:14.903Z,6.80
2019-01-11T02:15:47.256Z,6.97
2019-01-11T02:18:19.155Z,7.40
2019-01-11T02:20:51.013Z,8.00
2019-01-11T02:23:22.865Z,7.90
2019-01-11T02:25:54.749Z,7.63
2019-01-11T02:28:26.586Z,7.93
2019-01-11T02:30:58.447Z,8.00
2019-01-11T02:33:30.270Z,8.67
2019-01-11T02:36:02.314Z,12.03
2019-01-11T02:38:34.221Z,10.53
2019-01-11T02:41:06.141Z,9.50
2019-01-11T02:43:38.124Z,10.00
2019-01-11T02:46:09.937Z,11.00
2019-01-11T02:48:41.808Z,10.50
2019-01-11T02:51:13.676Z,9.53
2019-01-11T02:53:45.561Z,10.87
2019-01-11T02:56:17.435Z,10.77
2019-01-11T02:58:49.241Z,10.00
2019-01-11T03:01:21.197Z,10.80
2019-01-11T03:03:53.074Z,11.13
2019-01-11T03:06:24.925Z,11.07
2019-01-11T03:08:56.866Z,11.27
2019-01-11T03:11:28.814Z,11.13
2019-01-11T03:14:00.649Z,11.53
2019-01-11T03:16:32.488Z,13.20
2019-01-11T03:19:04.418Z,11.67
2019-01-11T03:21:36.258Z,11.90
2019-01-11T03:24:08.157Z,13.23
2019-01-11T03:26:39.996Z,13.03
2019-01-11T03:29:11.857Z,14.43
2019-01-11T03:31:43.709Z,15.50
2019-01-11T03:34:15.563Z,14.10
2019-01-11T03:36:47.455Z,15.87
2019-01-11T03:39:19.367Z,16.10
2019-01-11T03:42:08.907Z,15.77
2019-01-11T03:44:40.895Z,15.90
2019-01-11T03:47:12.814Z,15.57
2019-01-11T03:49:44.660Z,17.30
2019-01-11T03:52:16.550Z,16.07
2019-01-11T03:54:48.434Z,16.77
2019-01-11T03:57:20.267Z,16.10
2019-01-11T03:59:52.139Z,16.40
2019-01-11T04:02:23.968Z,16.90
2019-01-11T04:04:55.829Z,16.90
2019-01-11T04:07:27.694Z,17.07
2019-01-11T04:09:59.552Z,17.27
2019-01-11T04:12:31.441Z,15.70
2019-01-11T04:15:03.353Z,14.67
2019-01-11T04:17:35.171Z,15.93
2019-01-11T04:20:10.624Z,14.63
2019-01-11T04:22:49.523Z,16.10
2019-01-11T04:25:23.995Z,14.87
2019-01-11T04:27:55.836Z,14.37
2019-01-11T04:30:27.896Z,14.90
2019-01-11T04:32:59.798Z,14.37
2019-01-11T04:35:31.624Z,14.80
2019-01-11T04:38:03.511Z,15.90
2019-01-11T04:40:35.400Z,14.63
2019-01-11T04:43:10.198Z,14.63
2019-01-11T04:45:43.708Z,15.17
2019-01-11T04:48:15.661Z,14.37
2019-01-11T04:50:47.512Z,13.33
2019-01-11T04:53:19.445Z,14.47
2019-01-11T04:55:51.285Z,13.73
2019-01-11T04:58:23.185Z,14.20
2019-01-11T05:00:55.892Z,15.07
2019-01-11T05:03:27.757Z,13.90
2019-01-11T05:05:59.622Z,15.27
2019-01-11T05:08:31.631Z,14.27
2019-01-11T05:11:03.492Z,13.63
2019-01-11T05:13:40.165Z,14.40
2019-01-11T05:16:12.077Z,15.83
2019-01-11T05:18:44.036Z,15.90
2019-01-11T05:21:15.880Z,15.10
2019-01-11T05:23:47.699Z,14.33
2019-01-11T05:26:20.491Z,14.67
2019-01-11T05:28:54.071Z,15.13
2019-01-11T05:31:25.901Z,15.40
2019-01-11T05:33:57.816Z,15.30
2019-01-11T05:36:31.529Z,15.73
2019-01-11T05:39:04.445Z,15.10
2019-01-11T05:41:36.281Z,15.90
2019-01-11T05:44:08.265Z,15.23
2019-01-11T05:46:40.265Z,15.57
2019-01-11T05:49:12.178Z,15.13
2019-01-11T05:51:44.077Z,14.07
2019-01-11T05:54:20.475Z,15.90
2019-01-11T05:56:52.296Z,18.07
2019-01-11T05:59:25.878Z,18.20
2019-01-11T06:01:58.067Z,15.60
2019-01-11T06:04:46.312Z,16.73
2019-01-11T06:07:21.913Z,16.33
2019-01-11T06:09:53.729Z,16.50
2019-01-11T06:12:28.352Z,15.93
2019-01-11T06:15:00.227Z,16.10
2019-01-11T06:17:32.108Z,16.53
2019-01-11T06:20:04.780Z,17.37
2019-01-11T06:22:36.674Z,16.13
2019-01-11T06:25:08.847Z,19.13
2019-01-11T06:27:40.739Z,16.03
2019-01-11T06:30:14.603Z,18.57
2019-01-11T06:32:46.466Z,17.10
2019-01-11T06:35:18.350Z,16.77
2019-01-11T06:37:50.432Z,16.67
2019-01-11T06:40:22.331Z,16.83
2019-01-11T06:43:07.636Z,18.57
2019-01-11T06:45:39.494Z,19.27
2019-01-11T06:48:19.430Z,19.07
2019-01-11T06:50:51.344Z,19.83
2019-01-11T06:53:27.064Z,19.97
2019-01-11T06:55:58.879Z,17.57
2019-01-11T06:58:30.740Z,18.83
2019-01-11T07:01:02.658Z,21.03
2019-01-11T07:03:34.562Z,19.40
2019-01-11T07:06:07.380Z,21.07
2019-01-11T07:08:39.298Z,19.53
2019-01-11T07:11:11.220Z,22.23
2019-01-11T07:13:43.066Z,21.17
2019-01-11T07:16:14.928Z,22.13
2019-01-11T07:18:46.874Z,21.87
2019-01-11T07:21:18.755Z,21.50
2019-01-11T07:23:50.636Z,22.33
2019-01-11T07:26:22.505Z,21.10
2019-01-11T07:28:54.401Z,19.97
2019-01-11T07:31:29.677Z,22.47
2019-01-11T07:34:01.630Z,22.00
2019-01-11T07:36:40.380Z,21.80
2019-01-11T07:39:23.649Z,22.70
2019-01-11T07:41:55.532Z,20.10
2019-01-11T07:44:27.581Z,23.67
2019-01-11T07:47:00.112Z,23.17
2019-01-11T07:49:31.967Z,23.20
2019-01-11T07:52:03.874Z,22.50
2019-01-11T07:54:35.772Z,22.70
2019-01-11T07:57:07.717Z,25.43
2019-01-11T07:59:39.665Z,24.80
2019-01-11T08:02:11.552Z,25.37
2019-01-11T08:04:45.084Z,23.83
2019-01-11T08:07:17.003Z,22.17
2019-01-11T08:09:50.043Z,23.97
2019-01-11T08:12:21.953Z,23.50
2019-01-11T08:14:53.840Z,23.60
2019-01-11T08:17:25.690Z,22.33
2019-01-11T08:19:57.547Z,20.80
2019-01-11T08:22:42.411Z,23.13
2019-01-11T08:25:14.672Z,24.23
2019-01-11T08:27:46.542Z,25.10
2019-01-11T08:30:18.517Z,22.97
2019-01-11T08:32:50.384Z,25.13
2019-01-11T08:35:22.260Z,24.00
2019-01-11T08:37:54.153Z,25.17
2019-01-11T08:40:26.030Z,25.77
2019-01-11T08:42:57.905Z,25.07
2019-01-11T08:45:29.822Z,23.00
2019-01-11T08:48:01.649Z,27.87
2019-01-11T08:50:33.625Z,26.07
2019-01-11T08:53:05.532Z,22.70
2019-01-11T08:55:39.065Z,26.43
2019-01-11T08:58:10.961Z,24.90
2019-01-11T09:00:42.877Z,27.37
2019-01-11T09:03:14.762Z,22.57
2019-01-11T09:05:46.630Z,24.03
2019-01-11T09:08:18.485Z,23.53
2019-01-11T09:10:50.325Z,24.87
2019-01-11T09:13:22.253Z,22.33
2019-01-11T09:15:54.167Z,23.90
2019-01-11T09:18:33.361Z,26.07
2019-01-11T09:21:09.374Z,23.23
2019-01-11T09:23:38.846Z,25.87
2019-01-11T09:26:11.139Z,26.37
2019-01-11T09:28:42.983Z,25.90
2019-01-11T09:31:15.135Z,28.50
2019-01-11T09:33:47.046Z,26.67
2019-01-11T09:36:19.094Z,28.50
2019-01-11T09:38:50.948Z,26.57
2019-01-11T09:41:22.905Z,30.03
2019-01-11T09:43:54.800Z,28.80
2019-01-11T09:46:26.646Z,30.83
2019-01-11T09:48:58.562Z,29.73
2019-01-11T09:51:30.412Z,34.07
2019-01-11T09:54:02.270Z,33.43
2019-01-11T09:56:34.152Z,33.67
2019-01-11T09:59:05.999Z,34.20
2019-01-11T10:01:37.867Z,38.77
2019-01-11T10:04:13.340Z,35.60
2019-01-11T10:06:55.278Z,41.37
2019-01-11T10:09:28.792Z,39.73
2019-01-11T10:12:00.664Z,45.73
2019-01-11T10:14:32.550Z,43.20
2019-01-11T10:17:04.395Z,51.23
2019-01-11T10:19:36.261Z,52.60
2019-01-11T10:22:08.211Z,54.27
2019-01-11T10:24:40.128Z,52.53
2019-01-11T10:27:11.993Z,50.10
2019-01-11T10:29:43.922Z,49.57
2019-01-11T10:32:17.644Z,46.80
2019-01-11T10:34:50.688Z,55.10
2019-01-11T10:37:22.569Z,49.40
2019-01-11T10:39:54.462Z,55.73
2019-01-11T10:42:26.459Z,54.80
2019-01-11T10:44:58.340Z,52.80
2019-01-11T10:47:30.383Z,56.30
2019-01-11T10:50:02.206Z,52.47
2019-01-11T10:52:34.052Z,58.33
2019-01-11T10:55:07.942Z,54.10
2019-01-11T10:57:40.776Z,57.77
2019-01-11T11:00:17.346Z,61.10
2019-01-11T11:02:49.366Z,60.40
2019-01-11T11:05:21.555Z,54.23
2019-01-11T11:07:53.579Z,53.50
2019-01-11T11:10:25.542Z,58.63
2019-01-11T11:12:57.428Z,54.37
2019-01-11T11:15:29.359Z,61.37
2019-01-11T11:18:01.218Z,56.13
2019-01-11T11:20:33.112Z,61.00
2019-01-11T11:23:05.015Z,62.73
2019-01-11T11:25:36.887Z,60.67
2019-01-11T11:28:08.732Z,60.40
2019-01-11T11:30:42.315Z,62.27
2019-01-11T11:33:14.219Z,61.90
2019-01-11T11:35:46.033Z,73.97
2019-01-11T11:38:17.898Z,75.67
2019-01-11T11:40:49.857Z,63.27
2019-01-11T11:43:21.736Z,73.53
2019-01-11T11:45:53.556Z,65.70
2019-01-11T11:48:25.475Z,70.83
2019-01-11T11:50:57.327Z,67.27
2019-01-11T11:53:29.232Z,79.93
2019-01-11T11:56:01.092Z,71.87
2019-01-11T11:58:33.041Z,71.00
2019-01-11T12:01:06.555Z,70.40
2019-01-11T12:03:38.394Z,90.23
2019-01-11T12:06:10.278Z,78.80
2019-01-11T12:08:42.171Z,70.13
2019-01-11T12:11:14.035Z,65.43
2019-01-11T12:13:45.920Z,73.80
2019-01-11T12:16:18.075Z,68.53
2019-01-11T12:18:49.958Z,79.23
2019-01-11T12:21:21.836Z,62.87
2019-01-11T12:23:53.703Z,67.63
2019-01-11T12:26:25.816Z,63.90
2019-01-11T12:28:57.682Z,60.17
2019-01-11T12:31:29.562Z,62.10
2019-01-11T12:34:01.446Z,64.90
2019-01-11T12:36:33.315Z,68.50
2019-01-11T12:39:07.873Z,68.47
2019-01-11T12:41:39.737Z,58.27
2019-01-11T12:44:11.550Z,62.87
2019-01-11T12:46:43.450Z,63.03
2019-01-11T12:49:15.345Z,53.43
2019-01-11T12:51:47.254Z,47.37
2019-01-11T12:54:22.118Z,52.33
2019-01-11T12:56:54.011Z,57.27
2019-01-11T12:59:25.858Z,51.73
2019-01-11T13:01:57.794Z,53.60
2019-01-11T13:04:31.277Z,52.80
2019-01-11T13:07:03.180Z,56.20
2019-01-11T13:09:36.733Z,49.47
2019-01-11T13:12:09.475Z,49.57
2019-01-11T13:14:41.332Z,45.30
2019-01-11T13:17:13.218Z,45.30
2019-01-11T13:19:45.097Z,46.30
2019-01-11T13:22:16.969Z,45.60
2019-01-11T13:24:48.847Z,44.10
2019-01-11T13:27:20.815Z,49.80
2019-01-11T13:29:52.698Z,45.20
2019-01-11T13:32:24.595Z,40.83
2019-01-11T13:34:56.415Z,43.17
2019-01-11T13:37:28.324Z,38.77
2019-01-11T13:40:00.217Z,37.53
2019-01-11T13:42:32.095Z,37.97
2019-01-11T13:45:04.412Z,37.23
2019-01-11T13:47:36.261Z,34.10
2019-01-11T13:50:15.095Z,33.90
2019-01-11T13:52:46.953Z,33.07
2019-01-11T13:55:18.886Z,30.00
2019-01-11T13:57:50.807Z,31.57
2019-01-11T14:00:22.652Z,29.40
2019-01-11T14:02:54.550Z,30.33
2019-01-11T14:05:26.465Z,27.50
2019-01-11T14:07:58.368Z,22.67
2019-01-11T14:10:30.236Z,24.70
2019-01-11T14:13:02.071Z,22.20
2019-01-11T14:15:33.909Z,23.40
2019-01-11T14:18:06.771Z,18.83
2019-01-11T14:20:41.896Z,15.00
2019-01-11T14:23:13.820Z,17.57
2019-01-11T14:25:45.729Z,17.63
2019-01-11T14:28:17.562Z,12.90
2019-01-11T14:30:51.154Z,11.63
2019-01-11T14:33:23.041Z,13.23
2019-01-11T14:35:54.938Z,13.20
2019-01-11T14:38:26.836Z,12.67
2019-01-11T14:40:58.726Z,11.20
2019-01-11T14:43:30.578Z,11.83
2019-01-11T14:46:02.458Z,13.63
2019-01-11T14:48:34.355Z,15.27
2019-01-11T14:51:06.385Z,14.17
2019-01-11T14:53:38.268Z,12.33
2019-01-11T14:56:10.165Z,15.83
2019-01-11T14:58:43.658Z,13.27
2019-01-11T15:01:16.461Z,11.97
2019-01-11T15:03:48.358Z,9.77
2019-01-11T15:06:20.238Z,11.87
2019-01-11T15:08:52.101Z,13.93
2019-01-11T15:11:25.622Z,7.13
2019-01-11T15:13:57.497Z,8.23
2019-01-11T15:16:29.383Z,10.40
2019-01-11T15:19:01.267Z,9.00
2019-01-11T15:21:33.188Z,9.67
2019-01-11T15:24:05.867Z,8.57
2019-01-11T15:26:37.782Z,10.60
2019-01-11T15:29:09.687Z,7.53
2019-01-11T15:31:41.557Z,7.40
2019-01-11T15:34:13.442Z,6.33
2019-01-11T15:36:45.314Z,5.43
2019-01-11T15:39:18.206Z,7.77
2019-01-11T15:41:50.062Z,6.93
2019-01-11T15:44:22.041Z,8.33
2019-01-11T15:46:53.928Z,8.90
2019-01-11T15:49:25.821Z,9.57
2019-01-11T15:51:59.408Z,12.20
2019-01-11T15:54:31.254Z,12.37
2019-01-11T15:57:03.137Z,12.33
2019-01-11T15:59:58.255Z,14.27
2019-01-11T16:02:30.378Z,15.50
2019-01-11T16:05:02.277Z,12.77
2019-01-11T16:07:34.130Z,13.37
2019-01-11T16:10:13.659Z,14.90
2019-01-11T16:13:38.342Z,15.77
2019-01-11T16:16:43.136Z,12.87
2019-01-11T16:19:14.973Z,13.37
2019-01-11T16:21:46.850Z,11.83
2019-01-11T16:24:18.748Z,13.57
2019-01-11T16:26:50.703Z,11.93
2019-01-11T16:29:22.609Z,10.43
2019-01-11T16:31:54.500Z,12.60
2019-01-11T16:34:26.388Z,13.43
2019-01-11T16:36:58.294Z,9.43
2019-01-11T16:39:31.065Z,11.33
2019-01-11T16:42:03.080Z,9.87
2019-01-11T16:44:34.963Z,8.87
2019-01-11T16:47:06.841Z,9.57
2019-01-11T16:49:38.698Z,7.77
2019-01-11T16:52:15.276Z,9.27
2019-01-11T16:54:44.094Z,9.80
2019-01-11T16:57:16.914Z,8.03
2019-01-11T16:59:50.431Z,6.60
2019-01-11T17:02:22.475Z,7.37
2019-01-11T17:04:55.441Z,5.23
2019-01-11T17:07:27.342Z,9.50
2019-01-11T17:09:59.193Z,8.90
2019-01-11T17:12:31.088Z,8.37
2019-01-11T17:15:03.091Z,7.07
2019-01-11T17:17:34.997Z,7.53
2019-01-11T17:20:10.617Z,6.97
2019-01-11T17:22:42.613Z,6.87
2019-01-11T17:25:14.467Z,7.17
2019-01-11T17:27:46.334Z,6.90
2019-01-11T17:30:19.696Z,7.83
2019-01-11T17:32:51.576Z,8.03
2019-01-11T17:35:23.499Z,7.63
2019-01-11T17:37:55.561Z,6.47
2019-01-11T17:40:27.507Z,8.83
2019-01-11T17:42:59.464Z,5.70
2019-01-11T17:45:34.017Z,5.80
2019-01-11T17:48:05.927Z,7.33
2019-01-11T17:50:37.829Z,7.20
2019-01-11T17:53:10.760Z,7.53
2019-01-11T17:55:42.627Z,6.87
2019-01-11T17:58:14.500Z,8.00
2019-01-11T18:00:46.348Z,6.23
2019-01-11T18:03:18.218Z,7.90
2019-01-11T18:05:50.246Z,8.40
2019-01-11T18:08:22.119Z,7.80
2019-01-11T18:10:54.036Z,8.47
2019-01-11T18:13:25.877Z,7.27
2019-01-11T18:15:58.652Z,10.83
2019-01-11T18:18:30.562Z,7.60
2019-01-11T18:21:02.379Z,6.53
2019-01-11T18:23:34.317Z,8.73
2019-01-11T18:26:06.318Z,9.90
2019-01-11T18:28:38.210Z,8.00
2019-01-11T18:31:10.102Z,9.03
2019-01-11T18:33:41.972Z,6.60
2019-01-11T18:36:13.823Z,7.03
2019-01-11T18:38:45.737Z,7.40
2019-01-11T18:41:17.602Z,10.10
2019-01-11T18:43:49.430Z,9.50
2019-01-11T18:46:21.352Z,10.77
2019-01-11T18:48:53.338Z,8.80
2019-01-11T18:51:25.292Z,9.50
2019-01-11T18:53:57.154Z,8.10
2019-01-11T18:56:29.060Z,6.73
2019-01-11T18:59:00.927Z,8.67
2019-01-11T19:01:32.819Z,9.13
2019-01-11T19:04:04.749Z,7.10
2019-01-11T19:06:38.295Z,7.67
2019-01-11T19:09:10.762Z,7.90
2019-01-11T19:11:42.599Z,6.53
2019-01-11T19:14:16.180Z,7.53
2019-01-11T19:16:48.079Z,8.37
2019-01-11T19:19:19.927Z,8.17
2019-01-11T19:21:53.300Z,7.97
2019-01-11T19:24:25.363Z,11.30
2019-01-11T19:26:57.136Z,7.20
2019-01-11T19:29:30.605Z,6.10
2019-01-11T19:32:02.447Z,8.67
2019-01-11T19:34:34.219Z,10.57
2019-01-11T19:37:07.241Z,5.43
2019-01-11T19:39:39.065Z,6.10
2019-01-11T19:42:10.960Z,7.40
2019-01-11T19:44:43.803Z,7.13
2019-01-11T19:47:15.773Z,8.23
2019-01-11T19:49:47.749Z,5.87
2019-01-11T19:52:20.545Z,9.03
2019-01-11T19:54:52.733Z,9.80
2019-01-11T19:57:24.575Z,7.10
2019-01-11T19:59:56.454Z,7.40
2019-01-11T20:02:28.318Z,9.10
2019-01-11T20:05:00.240Z,9.20
2019-01-11T20:07:32.050Z,9.37
2019-01-11T20:10:03.921Z,8.10
2019-01-11T20:12:35.769Z,8.50
2019-01-11T20:15:08.548Z,9.03
2019-01-11T20:17:40.393Z,8.97
2019-01-11T20:20:13.587Z,7.27
2019-01-11T20:22:46.366Z,7.00
2019-01-11T20:25:20.629Z,7.80
2019-01-11T20:27:52.617Z,8.20
2019-01-11T20:30:28.067Z,7.87
2019-01-11T20:32:59.945Z,7.43
2019-01-11T20:35:31.830Z,6.63
2019-01-11T20:38:03.677Z,7.17
2019-01-11T20:40:35.641Z,5.13
2019-01-11T20:43:07.622Z,5.73
2019-01-11T20:45:39.523Z,10.63
2019-01-11T20:48:11.423Z,6.63
2019-01-11T20:50:43.219Z,7.87
2019-01-11T20:53:15.056Z,8.50
2019-01-11T20:55:46.961Z,9.47
2019-01-11T20:58:19.779Z,6.13
2019-01-11T21:00:53.266Z,8.00
2019-01-11T21:03:26.736Z,6.23
2019-01-11T21:05:58.642Z,6.77
2019-01-11T21:08:30.481Z,8.20
2019-01-11T21:11:02.310Z,5.87
2019-01-11T21:13:34.192Z,8.47
2019-01-11T21:16:06.892Z,9.00
2019-01-11T21:18:38.767Z,6.13
2019-01-11T21:21:10.615Z,7.97
2019-01-11T21:23:48.729Z,6.17
2019-01-11T21:26:16.092Z,6.47
2019-01-11T21:28:48.878Z,5.73
2019-01-11T21:31:20.876Z,6.67
2019-01-11T21:33:52.880Z,6.23
2019-01-11T21:36:24.727Z,5.73
2019-01-11T21:38:56.574Z,5.00
2019-01-11T21:41:28.468Z,5.13
2019-01-11T21:44:00.347Z,4.50
2019-01-11T21:46:32.213Z,4.43
2019-01-11T21:49:04.055Z,3.17
2019-01-11T21:51:35.908Z,7.30
2019-01-11T21:54:07.836Z,5.37
2019-01-11T21:56:39.739Z,3.57
2019-01-11T21:59:11.654Z,4.00
2019-01-11T22:01:43.523Z,3.87
2019-01-11T22:04:15.431Z,5.47
2019-01-11T22:06:47.285Z,3.83
2019-01-11T22:09:19.131Z,4.97
2019-01-11T22:11:51.197Z,5.97
2019-01-11T22:14:24.685Z,4.93
2019-01-11T22:16:56.541Z,5.80
2019-01-11T22:19:28.370Z,5.27
2019-01-11T22:22:00.303Z,4.87
2019-01-11T22:24:32.250Z,4.90
2019-01-11T22:27:04.211Z,4.10
2019-01-11T22:29:36.695Z,3.90
2019-01-11T22:32:08.712Z,3.97
2019-01-11T22:34:40.747Z,5.63
2019-01-11T22:37:12.789Z,4.00
2019-01-11T22:39:44.692Z,5.37
2019-01-11T22:42:17.753Z,3.27
2019-01-11T22:44:49.601Z,3.37
2019-01-11T22:47:21.791Z,5.33
2019-01-11T22:49:53.746Z,3.00
2019-01-11T22:52:25.874Z,2.73
2019-01-11T22:54:57.803Z,4.33
2019-01-11T22:57:29.814Z,6.27
2019-01-11T23:00:02.195Z,5.47
2019-01-11T23:02:48.958Z,4.83
2019-01-11T23:05:20.889Z,3.00
2019-01-11T23:08:08.423Z,3.17
2019-01-11T23:11:27.551Z,2.60
2019-01-11T23:13:59.731Z,2.47
2019-01-11T23:16:48.621Z,3.83
2019-01-11T23:19:20.600Z,2.47
2019-01-11T23:21:52.571Z,2.63
2019-01-11T23:24:24.464Z,3.70
2019-01-11T23:26:56.364Z,4.53
2019-01-11T23:29:28.248Z,4.37
2019-01-11T23:32:03.216Z,4.63
2019-01-11T23:34:35.266Z,6.33
2019-01-11T23:37:07.289Z,4.73
2019-01-11T23:39:39.384Z,6.07
2019-01-11T23:42:11.268Z,4.07
2019-01-11T23:44:43.130Z,4.70
2019-01-11T23:47:15.009Z,6.60
2019-01-11T23:49:46.892Z,5.97
2019-01-11T23:52:19.801Z,7.13
2019-01-11T23:54:51.676Z,6.97
2019-01-11T23:57:23.618Z,7.03
2019-01-11T23:59:55.527Z,6.43
